sensor_id;sensor_type;location;lat;lon;timestamp;pressure;altitude;pressure_sealevel;temperature;humidity
36834;BME280;48003;52.084;5.224;2023-04-07T00:01:12;101499.0;;;11.58;85.84
36834;BME280;48003;52.084;5.224;2023-04-07T00:02:48;101497.0;;;11.42;86.17
36834;BME280;48003;52.084;5.224;2023-04-07T00:06:00;101498.0;;;11.42;86.26
36834;BME280;48003;52.084;5.224;2023-04-07T00:07:36;101501.0;;;11.49;85.84
36834;BME280;48003;52.084;5.224;2023-04-07T00:09:12;101500.0;;;11.45;85.87
36834;BME280;48003;52.084;5.224;2023-04-07T00:12:25;101502.0;;;11.44;85.99
36834;BME280;48003;52.084;5.224;2023-04-07T00:14:01;101501.0;;;11.47;85.88
36834;BME280;48003;52.084;5.224;2023-04-07T00:15:37;101502.0;;;11.46;85.8
36834;BME280;48003;52.084;5.224;2023-04-07T00:18:50;101505.0;;;11.4;85.93
36834;BME280;48003;52.084;5.224;2023-04-07T00:20:27;101506.0;;;11.4;85.95
36834;BME280;48003;52.084;5.224;2023-04-07T00:22:03;101508.0;;;11.41;85.83
36834;BME280;48003;52.084;5.224;2023-04-07T00:23:39;101513.0;;;11.42;85.76
36834;BME280;48003;52.084;5.224;2023-04-07T00:26:51;101515.0;;;11.43;85.8
36834;BME280;48003;52.084;5.224;2023-04-07T00:28:27;101515.0;;;11.4;86.0
36834;BME280;48003;52.084;5.224;2023-04-07T00:30:05;101510.0;;;11.39;86.06
36834;BME280;48003;52.084;5.224;2023-04-07T00:33:18;101516.0;;;11.23;86.29
36834;BME280;48003;52.084;5.224;2023-04-07T00:34:54;101519.0;;;11.32;86.07
36834;BME280;48003;52.084;5.224;2023-04-07T00:36:30;101515.0;;;11.24;86.16
36834;BME280;48003;52.084;5.224;2023-04-07T00:39:42;101516.0;;;11.25;86.24
36834;BME280;48003;52.084;5.224;2023-04-07T00:41:19;101518.0;;;11.34;85.94
36834;BME280;48003;52.084;5.224;2023-04-07T00:42:54;101512.0;;;11.39;85.81
36834;BME280;48003;52.084;5.224;2023-04-07T00:46:07;101513.0;;;11.49;85.31
36834;BME280;48003;52.084;5.224;2023-04-07T00:47:43;101514.0;;;11.42;85.58
36834;BME280;48003;52.084;5.224;2023-04-07T00:49:19;101516.0;;;11.27;86.05
36834;BME280;48003;52.084;5.224;2023-04-07T00:50:55;101513.0;;;11.35;85.72
36834;BME280;48003;52.084;5.224;2023-04-07T00:54:09;101519.0;;;11.37;85.76
36834;BME280;48003;52.084;5.224;2023-04-07T00:55:45;101517.0;;;11.39;85.68
36834;BME280;48003;52.084;5.224;2023-04-07T00:57:21;101516.0;;;11.4;85.76
36834;BME280;48003;52.084;5.224;2023-04-07T01:00:37;101517.0;;;11.38;85.78
36834;BME280;48003;52.084;5.224;2023-04-07T01:02:20;101516.0;;;11.39;85.76
36834;BME280;48003;52.084;5.224;2023-04-07T01:04:01;101514.0;;;11.37;85.86
36834;BME280;48003;52.084;5.224;2023-04-07T01:05:49;101509.0;;;11.37;85.69
36834;BME280;48003;52.084;5.224;2023-04-07T01:09:18;101518.0;;;11.24;85.73
36834;BME280;48003;52.084;5.224;2023-04-07T01:11:03;101525.0;;;11.14;86.12
36834;BME280;48003;52.084;5.224;2023-04-07T01:12:48;101524.0;;;11.21;86.13
36834;BME280;48003;52.084;5.224;2023-04-07T01:14:28;101523.0;;;11.24;85.97
36834;BME280;48003;52.084;5.224;2023-04-07T01:16:15;101520.0;;;11.22;86.12
36834;BME280;48003;52.084;5.224;2023-04-07T01:19:48;101518.0;;;11.2;86.16
36834;BME280;48003;52.084;5.224;2023-04-07T01:21:31;101517.0;;;11.28;85.93
36834;BME280;48003;52.084;5.224;2023-04-07T01:23:16;101519.0;;;11.22;85.82
36834;BME280;48003;52.084;5.224;2023-04-07T01:25:09;101521.0;;;11.29;85.76
36834;BME280;48003;52.084;5.224;2023-04-07T01:26:59;101518.0;;;11.27;85.88
36834;BME280;48003;52.084;5.224;2023-04-07T01:28:54;101521.0;;;11.25;85.62
36834;BME280;48003;52.084;5.224;2023-04-07T01:31:08;101519.0;;;11.18;85.94
36834;BME280;48003;52.084;5.224;2023-04-07T01:32:49;101518.0;;;11.25;85.64
36834;BME280;48003;52.084;5.224;2023-04-07T01:36:08;101518.0;;;11.22;85.76
36834;BME280;48003;52.084;5.224;2023-04-07T01:37:46;101519.0;;;11.22;85.49
36834;BME280;48003;52.084;5.224;2023-04-07T01:39:25;101518.0;;;11.29;85.44
36834;BME280;48003;52.084;5.224;2023-04-07T01:41:02;101522.0;;;11.34;85.09
36834;BME280;48003;52.084;5.224;2023-04-07T01:44:18;101525.0;;;11.29;85.25
36834;BME280;48003;52.084;5.224;2023-04-07T01:45:55;101530.0;;;11.25;85.4
36834;BME280;48003;52.084;5.224;2023-04-07T01:47:33;101526.0;;;11.37;85.02
36834;BME280;48003;52.084;5.224;2023-04-07T01:50:49;101528.0;;;11.4;84.75
36834;BME280;48003;52.084;5.224;2023-04-07T01:52:25;101527.0;;;11.44;84.49
36834;BME280;48003;52.084;5.224;2023-04-07T01:54:03;101530.0;;;11.39;84.68
36834;BME280;48003;52.084;5.224;2023-04-07T01:57:16;101530.0;;;11.34;84.67
36834;BME280;48003;52.084;5.224;2023-04-07T01:58:52;101526.0;;;11.37;84.63
36834;BME280;48003;52.084;5.224;2023-04-07T02:00:29;101526.0;;;11.35;84.56
36834;BME280;48003;52.084;5.224;2023-04-07T02:02:05;101520.0;;;11.39;84.52
36834;BME280;48003;52.084;5.224;2023-04-07T02:05:23;101527.0;;;11.34;84.6
36834;BME280;48003;52.084;5.224;2023-04-07T02:07:07;101530.0;;;11.38;84.62
36834;BME280;48003;52.084;5.224;2023-04-07T02:08:48;101532.0;;;11.28;84.72
36834;BME280;48003;52.084;5.224;2023-04-07T02:10:33;101528.0;;;11.24;84.8
36834;BME280;48003;52.084;5.224;2023-04-07T02:13:52;101526.0;;;11.26;84.78
36834;BME280;48003;52.084;5.224;2023-04-07T02:15:30;101523.0;;;11.32;84.53
36834;BME280;48003;52.084;5.224;2023-04-07T02:17:07;101521.0;;;11.35;84.32
36834;BME280;48003;52.084;5.224;2023-04-07T02:18:45;101520.0;;;11.32;84.31
36834;BME280;48003;52.084;5.224;2023-04-07T02:22:02;101523.0;;;11.32;84.46
36834;BME280;48003;52.084;5.224;2023-04-07T02:23:38;101522.0;;;11.31;84.5
36834;BME280;48003;52.084;5.224;2023-04-07T02:25:23;101521.0;;;11.33;84.29
36834;BME280;48003;52.084;5.224;2023-04-07T02:28:36;101522.0;;;11.25;84.51
36834;BME280;48003;52.084;5.224;2023-04-07T02:30:13;101522.0;;;11.19;84.72
36834;BME280;48003;52.084;5.224;2023-04-07T02:31:49;101517.0;;;11.2;84.56
36834;BME280;48003;52.084;5.224;2023-04-07T02:33:25;101522.0;;;11.3;84.33
36834;BME280;48003;52.084;5.224;2023-04-07T02:36:38;101520.0;;;11.35;84.21
36834;BME280;48003;52.084;5.224;2023-04-07T02:38:14;101518.0;;;11.33;84.24
36834;BME280;48003;52.084;5.224;2023-04-07T02:39:50;101516.0;;;11.34;84.1
36834;BME280;48003;52.084;5.224;2023-04-07T02:43:02;101514.0;;;11.33;84.05
36834;BME280;48003;52.084;5.224;2023-04-07T02:44:38;101516.0;;;11.39;83.99
36834;BME280;48003;52.084;5.224;2023-04-07T02:46:14;101518.0;;;11.4;83.75
36834;BME280;48003;52.084;5.224;2023-04-07T02:49:26;101520.0;;;11.39;83.81
36834;BME280;48003;52.084;5.224;2023-04-07T02:51:03;101522.0;;;11.41;83.91
36834;BME280;48003;52.084;5.224;2023-04-07T02:52:39;101528.0;;;11.39;83.87
36834;BME280;48003;52.084;5.224;2023-04-07T02:54:15;101524.0;;;11.38;83.99
36834;BME280;48003;52.084;5.224;2023-04-07T02:57:27;101530.0;;;11.35;83.77
36834;BME280;48003;52.084;5.224;2023-04-07T02:59:03;101531.0;;;11.37;83.68
36834;BME280;48003;52.084;5.224;2023-04-07T03:00:39;101530.0;;;11.31;83.94
36834;BME280;48003;52.084;5.224;2023-04-07T03:03:52;101532.0;;;11.36;83.79
36834;BME280;48003;52.084;5.224;2023-04-07T03:05:28;101532.0;;;11.33;83.91
36834;BME280;48003;52.084;5.224;2023-04-07T03:07:04;101530.0;;;11.41;83.58
36834;BME280;48003;52.084;5.224;2023-04-07T03:10:16;101532.0;;;11.42;83.55
36834;BME280;48003;52.084;5.224;2023-04-07T03:11:53;101532.0;;;11.4;83.72
36834;BME280;48003;52.084;5.224;2023-04-07T03:13:28;101527.0;;;11.45;83.59
36834;BME280;48003;52.084;5.224;2023-04-07T03:16:42;101531.0;;;11.45;83.52
36834;BME280;48003;52.084;5.224;2023-04-07T03:18:18;101530.0;;;11.48;83.26
36834;BME280;48003;52.084;5.224;2023-04-07T03:19:54;101526.0;;;11.42;83.16
36834;BME280;48003;52.084;5.224;2023-04-07T03:21:31;101527.0;;;11.38;83.58
36834;BME280;48003;52.084;5.224;2023-04-07T03:24:43;101530.0;;;11.41;83.5
36834;BME280;48003;52.084;5.224;2023-04-07T03:26:19;101521.0;;;11.45;83.44
36834;BME280;48003;52.084;5.224;2023-04-07T03:27:55;101525.0;;;11.47;83.27
36834;BME280;48003;52.084;5.224;2023-04-07T03:31:07;101524.0;;;11.44;83.35
36834;BME280;48003;52.084;5.224;2023-04-07T03:32:43;101518.0;;;11.41;83.46
36834;BME280;48003;52.084;5.224;2023-04-07T03:34:19;101523.0;;;11.5;83.03
36834;BME280;48003;52.084;5.224;2023-04-07T03:37:32;101524.0;;;11.49;83.16
36834;BME280;48003;52.084;5.224;2023-04-07T03:39:08;101525.0;;;11.38;83.43
36834;BME280;48003;52.084;5.224;2023-04-07T03:40:44;101525.0;;;11.4;83.49
36834;BME280;48003;52.084;5.224;2023-04-07T03:43:56;101530.0;;;11.5;82.98
36834;BME280;48003;52.084;5.224;2023-04-07T03:45:32;101532.0;;;11.43;83.33
36834;BME280;48003;52.084;5.224;2023-04-07T03:47:09;101531.0;;;11.44;83.15
36834;BME280;48003;52.084;5.224;2023-04-07T03:48:45;101535.0;;;11.38;83.38
36834;BME280;48003;52.084;5.224;2023-04-07T03:51:57;101532.0;;;11.42;83.38
36834;BME280;48003;52.084;5.224;2023-04-07T03:53:33;101536.0;;;11.34;83.41
36834;BME280;48003;52.084;5.224;2023-04-07T03:55:09;101538.0;;;11.47;83.44
36834;BME280;48003;52.084;5.224;2023-04-07T03:58:22;101536.0;;;11.55;83.08
36834;BME280;48003;52.084;5.224;2023-04-07T03:59:58;101540.0;;;11.56;82.96
36834;BME280;48003;52.084;5.224;2023-04-07T04:01:34;101539.0;;;11.52;82.91
36834;BME280;48003;52.084;5.224;2023-04-07T04:04:46;101544.0;;;11.46;83.06
36834;BME280;48003;52.084;5.224;2023-04-07T04:06:22;101543.0;;;11.35;83.18
36834;BME280;48003;52.084;5.224;2023-04-07T04:07:58;101549.0;;;11.45;82.84
36834;BME280;48003;52.084;5.224;2023-04-07T04:09:34;101544.0;;;11.35;82.83
36834;BME280;48003;52.084;5.224;2023-04-07T04:12:47;101540.0;;;11.39;82.87
36834;BME280;48003;52.084;5.224;2023-04-07T04:14:24;101542.0;;;11.5;82.63
36834;BME280;48003;52.084;5.224;2023-04-07T04:16:00;101542.0;;;11.48;82.41
36834;BME280;48003;52.084;5.224;2023-04-07T04:19:12;101550.0;;;11.39;82.76
36834;BME280;48003;52.084;5.224;2023-04-07T04:20:48;101546.0;;;11.45;82.54
36834;BME280;48003;52.084;5.224;2023-04-07T04:22:24;101545.0;;;11.46;82.42
36834;BME280;48003;52.084;5.224;2023-04-07T04:27:14;101548.0;;;11.35;82.69
36834;BME280;48003;52.084;5.224;2023-04-07T04:28:51;101548.0;;;11.3;82.68
36834;BME280;48003;52.084;5.224;2023-04-07T04:32:05;101547.0;;;11.29;82.68
36834;BME280;48003;52.084;5.224;2023-04-07T04:35:17;101553.0;;;11.22;82.82
36834;BME280;48003;52.084;5.224;2023-04-07T04:36:54;101555.0;;;11.24;82.87
36834;BME280;48003;52.084;5.224;2023-04-07T04:40:07;101553.0;;;11.34;82.65
36834;BME280;48003;52.084;5.224;2023-04-07T04:41:43;101557.0;;;11.38;82.49
36834;BME280;48003;52.084;5.224;2023-04-07T04:43:21;101564.0;;;11.35;82.46
36834;BME280;48003;52.084;5.224;2023-04-07T04:48:09;101569.0;;;11.3;82.38
36834;BME280;48003;52.084;5.224;2023-04-07T04:49:46;101572.0;;;11.2;82.38
36834;BME280;48003;52.084;5.224;2023-04-07T04:52:58;101576.0;;;11.11;82.64
36834;BME280;48003;52.084;5.224;2023-04-07T04:54:34;101580.0;;;11.14;82.48
36834;BME280;48003;52.084;5.224;2023-04-07T04:56:11;101578.0;;;11.27;82.08
36834;BME280;48003;52.084;5.224;2023-04-07T04:59:24;101580.0;;;11.23;81.88
36834;BME280;48003;52.084;5.224;2023-04-07T05:01:00;101589.0;;;11.24;81.72
36834;BME280;48003;52.084;5.224;2023-04-07T05:02:36;101588.0;;;11.32;81.61
36834;BME280;48003;52.084;5.224;2023-04-07T05:04:13;101587.0;;;11.37;81.22
36834;BME280;48003;52.084;5.224;2023-04-07T05:07:27;101589.0;;;11.41;81.33
36834;BME280;48003;52.084;5.224;2023-04-07T05:09:03;101587.0;;;11.4;81.36
36834;BME280;48003;52.084;5.224;2023-04-07T05:10:41;101584.0;;;11.44;81.33
36834;BME280;48003;52.084;5.224;2023-04-07T05:13:54;101585.0;;;11.39;81.52
36834;BME280;48003;52.084;5.224;2023-04-07T05:15:31;101583.0;;;11.42;81.44
36834;BME280;48003;52.084;5.224;2023-04-07T05:17:08;101583.0;;;11.45;81.39
36834;BME280;48003;52.084;5.224;2023-04-07T05:18:45;101586.0;;;11.51;81.24
36834;BME280;48003;52.084;5.224;2023-04-07T05:21:57;101588.0;;;11.43;81.34
36834;BME280;48003;52.084;5.224;2023-04-07T05:23:35;101588.0;;;11.44;81.48
36834;BME280;48003;52.084;5.224;2023-04-07T05:25:11;101591.0;;;11.47;81.49
36834;BME280;48003;52.084;5.224;2023-04-07T05:28:24;101593.0;;;11.42;81.44
36834;BME280;48003;52.084;5.224;2023-04-07T05:30:01;101593.0;;;11.33;81.77
36834;BME280;48003;52.084;5.224;2023-04-07T05:34:49;101601.0;;;11.37;81.48
36834;BME280;48003;52.084;5.224;2023-04-07T05:36:26;101608.0;;;11.32;81.44
36834;BME280;48003;52.084;5.224;2023-04-07T05:38:02;101606.0;;;11.29;81.58
36834;BME280;48003;52.084;5.224;2023-04-07T05:39:40;101607.0;;;11.28;81.55
36834;BME280;48003;52.084;5.224;2023-04-07T05:42:53;101609.0;;;11.35;81.11
36834;BME280;48003;52.084;5.224;2023-04-07T05:44:29;101605.0;;;11.27;81.33
36834;BME280;48003;52.084;5.224;2023-04-07T05:46:06;101609.0;;;11.37;81.02
36834;BME280;48003;52.084;5.224;2023-04-07T05:49:18;101605.0;;;11.39;80.98
36834;BME280;48003;52.084;5.224;2023-04-07T05:50:55;101611.0;;;11.36;81.14
36834;BME280;48003;52.084;5.224;2023-04-07T05:52:32;101612.0;;;11.36;81.19
36834;BME280;48003;52.084;5.224;2023-04-07T05:55:45;101610.0;;;11.42;81.19
36834;BME280;48003;52.084;5.224;2023-04-07T05:58:58;101613.0;;;11.44;80.83
36834;BME280;48003;52.084;5.224;2023-04-07T06:00:35;101612.0;;;11.43;80.83
36834;BME280;48003;52.084;5.224;2023-04-07T06:03:48;101614.0;;;11.47;80.77
36834;BME280;48003;52.084;5.224;2023-04-07T06:05:25;101615.0;;;11.47;80.81
36834;BME280;48003;52.084;5.224;2023-04-07T06:07:01;101619.0;;;11.45;80.97
36834;BME280;48003;52.084;5.224;2023-04-07T06:10:14;101620.0;;;11.46;80.99
36834;BME280;48003;52.084;5.224;2023-04-07T06:11:50;101623.0;;;11.51;80.95
36834;BME280;48003;52.084;5.224;2023-04-07T06:13:26;101625.0;;;11.58;80.69
36834;BME280;48003;52.084;5.224;2023-04-07T06:16:40;101628.0;;;11.59;80.63
36834;BME280;48003;52.084;5.224;2023-04-07T06:18:16;101624.0;;;11.59;80.69
36834;BME280;48003;52.084;5.224;2023-04-07T06:19:51;101625.0;;;11.57;80.61
36834;BME280;48003;52.084;5.224;2023-04-07T06:21:27;101627.0;;;11.62;80.62
36834;BME280;48003;52.084;5.224;2023-04-07T06:24:40;101627.0;;;11.57;80.72
36834;BME280;48003;52.084;5.224;2023-04-07T06:26:16;101630.0;;;11.68;80.41
36834;BME280;48003;52.084;5.224;2023-04-07T06:27:52;101630.0;;;11.57;80.52
36834;BME280;48003;52.084;5.224;2023-04-07T06:31:07;101630.0;;;11.68;80.22
36834;BME280;48003;52.084;5.224;2023-04-07T06:32:43;101637.0;;;11.5;80.38
36834;BME280;48003;52.084;5.224;2023-04-07T06:34:20;101638.0;;;11.6;80.3
36834;BME280;48003;52.084;5.224;2023-04-07T06:37:32;101639.0;;;11.57;80.52
36834;BME280;48003;52.084;5.224;2023-04-07T06:39:08;101637.0;;;11.65;80.22
36834;BME280;48003;52.084;5.224;2023-04-07T06:40:44;101642.0;;;11.7;80.11
36834;BME280;48003;52.084;5.224;2023-04-07T06:42:20;101645.0;;;11.7;80.28
36834;BME280;48003;52.084;5.224;2023-04-07T06:45:33;101644.0;;;11.66;80.3
36834;BME280;48003;52.084;5.224;2023-04-07T06:47:09;101643.0;;;11.64;80.19
36834;BME280;48003;52.084;5.224;2023-04-07T06:48:45;101645.0;;;11.64;80.02
36834;BME280;48003;52.084;5.224;2023-04-07T06:51:57;101648.0;;;11.55;80.13
36834;BME280;48003;52.084;5.224;2023-04-07T06:53:33;101655.0;;;11.62;80.0
36834;BME280;48003;52.084;5.224;2023-04-07T06:55:09;101656.0;;;11.6;80.16
36834;BME280;48003;52.084;5.224;2023-04-07T06:58:22;101660.0;;;11.61;80.27
36834;BME280;48003;52.084;5.224;2023-04-07T06:59:57;101660.0;;;11.68;80.13
36834;BME280;48003;52.084;5.224;2023-04-07T07:01:33;101667.0;;;11.65;80.3
36834;BME280;48003;52.084;5.224;2023-04-07T07:04:45;101664.0;;;11.67;80.14
36834;BME280;48003;52.084;5.224;2023-04-07T07:06:22;101667.0;;;11.66;80.27
36834;BME280;48003;52.084;5.224;2023-04-07T07:07:58;101669.0;;;11.71;80.22
36834;BME280;48003;52.084;5.224;2023-04-07T07:09:34;101671.0;;;11.66;80.3
36834;BME280;48003;52.084;5.224;2023-04-07T07:12:46;101670.0;;;11.74;80.08
36834;BME280;48003;52.084;5.224;2023-04-07T07:14:22;101671.0;;;11.78;79.83
36834;BME280;48003;52.084;5.224;2023-04-07T07:15:59;101674.0;;;11.81;79.8
36834;BME280;48003;52.084;5.224;2023-04-07T07:19:11;101672.0;;;11.79;79.78
36834;BME280;48003;52.084;5.224;2023-04-07T07:20:47;101673.0;;;11.83;79.66
36834;BME280;48003;52.084;5.224;2023-04-07T07:22:23;101677.0;;;11.75;79.86
36834;BME280;48003;52.084;5.224;2023-04-07T07:25:36;101680.0;;;11.68;79.87
36834;BME280;48003;52.084;5.224;2023-04-07T07:27:12;101681.0;;;11.71;79.91
36834;BME280;48003;52.084;5.224;2023-04-07T07:28:48;101688.0;;;11.65;79.84
36834;BME280;48003;52.084;5.224;2023-04-07T07:30:24;101690.0;;;11.74;79.92
36834;BME280;48003;52.084;5.224;2023-04-07T07:33:36;101699.0;;;11.71;80.09
36834;BME280;48003;52.084;5.224;2023-04-07T07:35:13;101699.0;;;11.69;80.05
36834;BME280;48003;52.084;5.224;2023-04-07T07:36:49;101701.0;;;11.58;80.38
36834;BME280;48003;52.084;5.224;2023-04-07T07:40:02;101698.0;;;11.73;80.16
36834;BME280;48003;52.084;5.224;2023-04-07T07:41:38;101703.0;;;11.73;80.08
36834;BME280;48003;52.084;5.224;2023-04-07T07:43:14;101702.0;;;11.73;80.11
36834;BME280;48003;52.084;5.224;2023-04-07T07:46:27;101705.0;;;11.81;79.83
36834;BME280;48003;52.084;5.224;2023-04-07T07:48:02;101703.0;;;11.81;79.61
36834;BME280;48003;52.084;5.224;2023-04-07T07:49:39;101703.0;;;11.79;79.8
36834;BME280;48003;52.084;5.224;2023-04-07T07:52:51;101706.0;;;11.87;79.69
36834;BME280;48003;52.084;5.224;2023-04-07T07:54:27;101706.0;;;11.94;79.63
36834;BME280;48003;52.084;5.224;2023-04-07T07:56:03;101706.0;;;12.0;79.56
36834;BME280;48003;52.084;5.224;2023-04-07T07:57:39;101710.0;;;11.97;79.69
36834;BME280;48003;52.084;5.224;2023-04-07T08:00:52;101709.0;;;12.05;79.19
36834;BME280;48003;52.084;5.224;2023-04-07T08:02:28;101711.0;;;12.09;79.05
36834;BME280;48003;52.084;5.224;2023-04-07T08:04:04;101716.0;;;11.86;79.09
36834;BME280;48003;52.084;5.224;2023-04-07T08:07:17;101720.0;;;11.85;79.28
36834;BME280;48003;52.084;5.224;2023-04-07T08:08:53;101721.0;;;11.95;79.36
36834;BME280;48003;52.084;5.224;2023-04-07T08:10:29;101725.0;;;11.99;79.22
36834;BME280;48003;52.084;5.224;2023-04-07T08:13:42;101727.0;;;11.98;79.17
36834;BME280;48003;52.084;5.224;2023-04-07T08:15:18;101727.0;;;12.04;78.91
36834;BME280;48003;52.084;5.224;2023-04-07T08:16:54;101736.0;;;11.95;78.69
36834;BME280;48003;52.084;5.224;2023-04-07T08:18:30;101734.0;;;11.99;78.92
36834;BME280;48003;52.084;5.224;2023-04-07T08:21:44;101736.0;;;12.06;78.63
36834;BME280;48003;52.084;5.224;2023-04-07T08:23:21;101735.0;;;12.11;78.42
36834;BME280;48003;52.084;5.224;2023-04-07T08:24:57;101737.0;;;11.97;77.58
36834;BME280;48003;52.084;5.224;2023-04-07T08:28:09;101738.0;;;11.9;77.17
36834;BME280;48003;52.084;5.224;2023-04-07T08:29:50;101739.0;;;11.85;77.12
36834;BME280;48003;52.084;5.224;2023-04-07T08:31:32;101741.0;;;11.84;77.42
36834;BME280;48003;52.084;5.224;2023-04-07T08:33:09;101741.0;;;11.83;76.7
36834;BME280;48003;52.084;5.224;2023-04-07T08:36:21;101740.0;;;11.74;76.94
36834;BME280;48003;52.084;5.224;2023-04-07T08:37:57;101747.0;;;11.78;77.08
36834;BME280;48003;52.084;5.224;2023-04-07T08:39:33;101747.0;;;11.65;76.81
36834;BME280;48003;52.084;5.224;2023-04-07T08:42:48;101749.0;;;11.75;76.55
36834;BME280;48003;52.084;5.224;2023-04-07T08:44:24;101749.0;;;11.84;76.33
36834;BME280;48003;52.084;5.224;2023-04-07T08:46:03;101752.0;;;11.74;76.16
36834;BME280;48003;52.084;5.224;2023-04-07T08:49:18;101751.0;;;11.83;76.19
36834;BME280;48003;52.084;5.224;2023-04-07T08:50:57;101750.0;;;11.8;75.94
36834;BME280;48003;52.084;5.224;2023-04-07T08:52:39;101749.0;;;11.81;75.5
36834;BME280;48003;52.084;5.224;2023-04-07T08:54:18;101757.0;;;11.9;75.36
36834;BME280;48003;52.084;5.224;2023-04-07T08:57:32;101759.0;;;11.94;75.03
36834;BME280;48003;52.084;5.224;2023-04-07T08:59:11;101760.0;;;11.85;75.06
36834;BME280;48003;52.084;5.224;2023-04-07T09:00:49;101762.0;;;11.78;74.59
36834;BME280;48003;52.084;5.224;2023-04-07T09:02:26;101760.0;;;11.87;74.91
36834;BME280;48003;52.084;5.224;2023-04-07T09:05:40;101761.0;;;11.74;74.66
36834;BME280;48003;52.084;5.224;2023-04-07T09:07:19;101766.0;;;11.9;74.53
36834;BME280;48003;52.084;5.224;2023-04-07T09:08:55;101764.0;;;11.98;74.47
36834;BME280;48003;52.084;5.224;2023-04-07T09:12:07;101770.0;;;12.04;74.19
36834;BME280;48003;52.084;5.224;2023-04-07T09:13:44;101772.0;;;12.1;73.8
36834;BME280;48003;52.084;5.224;2023-04-07T09:15:20;101772.0;;;12.03;74.06
36834;BME280;48003;52.084;5.224;2023-04-07T09:18:33;101777.0;;;12.06;73.74
36834;BME280;48003;52.084;5.224;2023-04-07T09:20:10;101776.0;;;12.09;73.98
36834;BME280;48003;52.084;5.224;2023-04-07T09:21:48;101776.0;;;12.18;73.8
36834;BME280;48003;52.084;5.224;2023-04-07T09:23:26;101771.0;;;12.18;73.41
36834;BME280;48003;52.084;5.224;2023-04-07T09:27:07;101776.0;;;11.98;73.14
36834;BME280;48003;52.084;5.224;2023-04-07T09:28:46;101773.0;;;12.19;73.13
36834;BME280;48003;52.084;5.224;2023-04-07T09:30:22;101775.0;;;12.32;73.25
36834;BME280;48003;52.084;5.224;2023-04-07T09:31:59;101774.0;;;12.43;73.16
36834;BME280;48003;52.084;5.224;2023-04-07T09:35:12;101778.0;;;12.63;72.92
36834;BME280;48003;52.084;5.224;2023-04-07T09:36:48;101776.0;;;12.45;72.77
36834;BME280;48003;52.084;5.224;2023-04-07T09:38:32;101782.0;;;12.35;72.13
36834;BME280;48003;52.084;5.224;2023-04-07T09:40:09;101780.0;;;12.38;71.72
36834;BME280;48003;52.084;5.224;2023-04-07T09:43:21;101781.0;;;12.42;72.19
36834;BME280;48003;52.084;5.224;2023-04-07T09:44:58;101778.0;;;12.47;71.73
36834;BME280;48003;52.084;5.224;2023-04-07T09:46:34;101782.0;;;12.46;71.97
36834;BME280;48003;52.084;5.224;2023-04-07T09:49:56;101789.0;;;12.29;72.11
36834;BME280;48003;52.084;5.224;2023-04-07T09:51:32;101787.0;;;12.28;71.77
36834;BME280;48003;52.084;5.224;2023-04-07T09:53:08;101791.0;;;12.37;72.0
36834;BME280;48003;52.084;5.224;2023-04-07T09:54:45;101793.0;;;12.45;72.17
36834;BME280;48003;52.084;5.224;2023-04-07T09:58:00;101792.0;;;12.34;72.08
36834;BME280;48003;52.084;5.224;2023-04-07T09:59:40;101793.0;;;12.21;72.58
36834;BME280;48003;52.084;5.224;2023-04-07T10:01:17;101793.0;;;12.28;72.56
36834;BME280;48003;52.084;5.224;2023-04-07T10:04:29;101791.0;;;12.28;72.5
36834;BME280;48003;52.084;5.224;2023-04-07T10:06:06;101794.0;;;12.21;72.47
36834;BME280;48003;52.084;5.224;2023-04-07T10:07:43;101791.0;;;12.25;72.27
36834;BME280;48003;52.084;5.224;2023-04-07T10:10:55;101794.0;;;12.18;72.61
36834;BME280;48003;52.084;5.224;2023-04-07T10:12:33;101796.0;;;12.35;72.37
36834;BME280;48003;52.084;5.224;2023-04-07T10:14:10;101797.0;;;12.32;72.55
36834;BME280;48003;52.084;5.224;2023-04-07T10:15:47;101794.0;;;12.37;72.59
36834;BME280;48003;52.084;5.224;2023-04-07T10:19:01;101798.0;;;12.44;72.27
36834;BME280;48003;52.084;5.224;2023-04-07T10:20:39;101789.0;;;12.45;72.08
36834;BME280;48003;52.084;5.224;2023-04-07T10:22:16;101796.0;;;12.39;71.78
36834;BME280;48003;52.084;5.224;2023-04-07T10:25:41;101794.0;;;12.51;72.12
36834;BME280;48003;52.084;5.224;2023-04-07T10:27:22;101792.0;;;12.56;72.27
36834;BME280;48003;52.084;5.224;2023-04-07T10:29:07;101795.0;;;12.7;72.12
36834;BME280;48003;52.084;5.224;2023-04-07T10:30:46;101801.0;;;12.79;71.88
36834;BME280;48003;52.084;5.224;2023-04-07T10:32:23;101807.0;;;12.76;71.45
36834;BME280;48003;52.084;5.224;2023-04-07T10:36:07;101811.0;;;12.67;71.13
36834;BME280;48003;52.084;5.224;2023-04-07T10:38:09;101811.0;;;12.77;70.98
36834;BME280;48003;52.084;5.224;2023-04-07T10:39:46;101816.0;;;12.67;70.39
36834;BME280;48003;52.084;5.224;2023-04-07T10:41:31;101816.0;;;12.65;70.73
36834;BME280;48003;52.084;5.224;2023-04-07T10:43:07;101819.0;;;12.77;70.97
36834;BME280;48003;52.084;5.224;2023-04-07T10:48:09;101827.0;;;12.58;71.41
36834;BME280;48003;52.084;5.224;2023-04-07T10:50:24;101828.0;;;12.5;71.42
36834;BME280;48003;52.084;5.224;2023-04-07T10:52:31;101824.0;;;12.5;71.42
36834;BME280;48003;52.084;5.224;2023-04-07T10:54:15;101827.0;;;12.57;71.44
36834;BME280;48003;52.084;5.224;2023-04-07T10:55:53;101827.0;;;12.49;71.3
36834;BME280;48003;52.084;5.224;2023-04-07T10:57:30;101831.0;;;12.65;71.11
36834;BME280;48003;52.084;5.224;2023-04-07T11:01:21;101826.0;;;12.76;71.58
36834;BME280;48003;52.084;5.224;2023-04-07T11:03:09;101827.0;;;12.77;71.39
36834;BME280;48003;52.084;5.224;2023-04-07T11:04:46;101828.0;;;12.73;70.84
36834;BME280;48003;52.084;5.224;2023-04-07T11:06:23;101827.0;;;12.73;71.34
36834;BME280;48003;52.084;5.224;2023-04-07T11:07:59;101828.0;;;12.7;70.69
36834;BME280;48003;52.084;5.224;2023-04-07T11:11:12;101838.0;;;12.61;70.87
36834;BME280;48003;52.084;5.224;2023-04-07T11:12:59;101828.0;;;12.61;70.22
36834;BME280;48003;52.084;5.224;2023-04-07T11:14:42;101838.0;;;12.67;70.31
36834;BME280;48003;52.084;5.224;2023-04-07T11:16:20;101840.0;;;12.7;70.58
36834;BME280;48003;52.084;5.224;2023-04-07T11:19:50;101839.0;;;12.73;70.5